createdAt,value
2023-01-15T00:02:58.044Z,33.28
2023-01-15T00:08:02.375Z,33.15
2023-01-15T00:13:05.236Z,33.58
2023-01-15T00:18:08.152Z,33.13
2023-01-15T00:23:32.410Z,33.35
2023-01-15T00:28:35.393Z,33.40
2023-01-15T00:33:38.255Z,33.17
2023-01-15T00:38:42.486Z,32.92
2023-01-15T00:43:45.526Z,33.33
2023-01-15T00:48:54.344Z,33.03
2023-01-15T00:53:59.801Z,33.25
2023-01-15T00:59:03.426Z,33.10
2023-01-15T01:04:06.934Z,33.28
2023-01-15T01:09:14.500Z,33.15
2023-01-15T01:14:17.470Z,33.13
2023-01-15T01:19:23.225Z,33.13
2023-01-15T01:24:27.738Z,32.95
2023-01-15T01:29:30.645Z,33.13
2023-01-15T01:34:47.751Z,33.00
2023-01-15T01:39:52.143Z,33.13
2023-01-15T01:45:02.945Z,33.33
2023-01-15T01:50:10.524Z,33.50
2023-01-15T01:55:18.051Z,33.08
2023-01-15T02:00:33.081Z,33.38
2023-01-15T02:05:47.181Z,33.15
2023-01-15T02:10:54.809Z,32.85
2023-01-15T02:16:13.686Z,33.30
2023-01-15T02:21:25.535Z,33.10
2023-01-15T02:27:02.874Z,32.97
2023-01-15T02:32:11.881Z,33.35
2023-01-15T02:37:22.595Z,33.05
2023-01-15T02:42:29.200Z,33.03
2023-01-15T02:48:09.467Z,33.25
2023-01-15T02:53:18.272Z,33.05
2023-01-15T02:58:27.078Z,33.15
2023-01-15T03:03:40.621Z,33.35
2023-01-15T03:08:43.914Z,33.15
2023-01-15T03:13:52.828Z,33.28
2023-01-15T03:19:05.017Z,33.13
2023-01-15T03:24:12.475Z,33.08
2023-01-15T03:29:28.739Z,33.17
2023-01-15T03:34:38.059Z,32.95
2023-01-15T03:39:43.783Z,33.10
2023-01-15T03:45:11.897Z,33.35
2023-01-15T03:50:23.821Z,33.47
2023-01-15T03:55:33.560Z,33.40
2023-01-15T04:00:45.529Z,33.28
2023-01-15T04:05:51.287Z,33.30
2023-01-15T04:10:56.663Z,32.80
2023-01-15T04:16:05.410Z,33.10
2023-01-15T04:21:08.673Z,33.03
2023-01-15T04:26:11.604Z,33.00
2023-01-15T04:31:16.316Z,32.88
2023-01-15T04:36:19.252Z,33.05
2023-01-15T04:41:39.801Z,32.85
2023-01-15T04:46:45.914Z,32.83
2023-01-15T04:51:48.838Z,33.05
2023-01-15T04:56:53.666Z,33.10
2023-01-15T05:02:04.588Z,32.65
2023-01-15T05:07:08.190Z,32.97
2023-01-15T05:12:11.120Z,32.70
2023-01-15T05:17:15.339Z,32.63
2023-01-15T05:22:18.201Z,32.85
2023-01-15T05:27:21.058Z,33.05
2023-01-15T05:32:25.424Z,32.60
2023-01-15T05:37:30.803Z,34.50
2023-01-15T05:42:33.660Z,32.78
2023-01-15T05:47:37.864Z,32.72
2023-01-15T05:52:40.795Z,32.63
2023-01-15T05:57:43.688Z,33.17
2023-01-15T06:02:51.437Z,32.85
2023-01-15T06:07:54.342Z,32.92
2023-01-15T06:12:57.238Z,32.72
2023-01-15T06:18:01.721Z,32.80
2023-01-15T06:23:04.626Z,33.08
2023-01-15T06:28:08.779Z,32.53
2023-01-15T06:33:13.094Z,32.60
2023-01-15T06:38:15.986Z,32.42
2023-01-15T06:43:36.393Z,32.70
2023-01-15T06:48:40.663Z,32.75
2023-01-15T06:53:43.537Z,32.90
2023-01-15T06:58:46.614Z,36.10
2023-01-15T07:03:50.833Z,32.42
2023-01-15T07:08:54.087Z,32.63
2023-01-15T07:14:05.841Z,33.10
2023-01-15T07:19:10.766Z,33.17
2023-01-15T07:24:14.084Z,32.35
2023-01-15T07:29:21.546Z,32.55
2023-01-15T07:34:25.967Z,32.65
2023-01-15T07:39:31.521Z,33.13
2023-01-15T07:44:51.771Z,32.70
2023-01-15T07:50:02.999Z,33.10
2023-01-15T07:55:08.453Z,34.22
2023-01-15T08:00:14.489Z,33.13
2023-01-15T08:05:19.096Z,32.80
2023-01-15T08:10:21.978Z,32.97
2023-01-15T08:15:24.857Z,32.95
2023-01-15T08:20:29.144Z,33.03
2023-01-15T08:25:32.145Z,33.05
2023-01-15T08:30:35.010Z,32.55
2023-01-15T08:35:39.272Z,32.72
2023-01-15T08:46:13.932Z,33.05
2023-01-15T08:51:16.968Z,32.70
2023-01-15T08:56:20.680Z,33.40
2023-01-15T09:01:25.052Z,33.17
2023-01-15T09:06:29.304Z,33.05
2023-01-15T09:11:32.267Z,33.28
2023-01-15T09:16:37.039Z,33.17
2023-01-15T09:21:40.050Z,35.58
2023-01-15T09:26:42.916Z,34.15
2023-01-15T09:31:47.980Z,33.17
2023-01-15T09:36:51.239Z,33.90
2023-01-15T09:42:07.890Z,33.08
2023-01-15T09:47:16.697Z,32.72
2023-01-15T09:52:30.235Z,33.38
2023-01-15T09:57:34.042Z,33.55
2023-01-15T10:02:44.136Z,33.13
2023-01-15T10:07:55.225Z,33.20
2023-01-15T10:13:03.557Z,35.75
2023-01-15T10:18:08.927Z,34.35
2023-01-15T10:23:25.781Z,33.10
2023-01-15T10:28:31.242Z,34.38
2023-01-15T10:33:54.173Z,33.45
2023-01-15T10:39:11.411Z,33.90
2023-01-15T10:44:19.407Z,33.83
2023-01-15T10:49:23.676Z,33.15
2023-01-15T10:54:33.835Z,33.05
2023-01-15T10:59:41.628Z,32.35
2023-01-15T11:04:45.840Z,32.47
2023-01-15T11:09:49.090Z,32.22
2023-01-15T11:15:09.386Z,32.45
2023-01-15T11:20:26.397Z,33.42
2023-01-15T11:25:31.462Z,33.78
2023-01-15T11:30:37.464Z,32.95
2023-01-15T11:35:52.090Z,33.50
2023-01-15T11:41:05.321Z,32.80
2023-01-15T11:46:41.812Z,34.03
2023-01-15T11:51:49.822Z,33.22
2023-01-15T11:56:53.005Z,33.03
2023-01-15T12:02:00.680Z,32.65
2023-01-15T12:07:06.486Z,32.80
2023-01-15T12:12:19.535Z,33.65
2023-01-15T12:17:39.732Z,33.28
2023-01-15T12:22:57.047Z,33.22
2023-01-15T12:28:07.786Z,32.60
2023-01-15T12:33:39.535Z,32.45
2023-01-15T12:38:49.563Z,32.45
2023-01-15T12:44:14.999Z,37.63
2023-01-15T12:49:32.804Z,40.58
2023-01-15T12:54:40.076Z,41.47
2023-01-15T12:59:49.681Z,34.65
2023-01-15T13:04:54.906Z,33.40
2023-01-15T13:10:07.698Z,33.53
2023-01-15T13:15:15.087Z,33.33
2023-01-15T13:20:32.446Z,33.20
2023-01-15T13:25:56.409Z,32.72
2023-01-15T13:31:11.658Z,32.75
2023-01-15T13:36:27.379Z,33.15
2023-01-15T13:41:52.188Z,33.10
2023-01-15T13:47:03.252Z,32.65
2023-01-15T13:52:08.757Z,32.35
2023-01-15T13:57:32.737Z,33.10
2023-01-15T14:02:38.799Z,32.78
2023-01-15T14:07:41.744Z,33.53
2023-01-15T14:12:54.903Z,32.33
2023-01-15T14:18:16.714Z,33.33
2023-01-15T14:23:54.543Z,32.63
2023-01-15T14:29:08.162Z,33.05
2023-01-15T14:34:18.165Z,32.22
2023-01-15T14:39:28.297Z,32.13
2023-01-15T14:44:34.467Z,32.47
2023-01-15T14:49:49.594Z,32.55
2023-01-15T14:54:55.434Z,32.08
2023-01-15T15:00:04.054Z,32.80
2023-01-15T15:05:14.830Z,32.30
2023-01-15T15:10:24.892Z,32.15
2023-01-15T15:15:56.574Z,32.60
2023-01-15T15:21:06.597Z,32.15
2023-01-15T15:26:33.280Z,32.70
2023-01-15T15:31:40.340Z,32.78
2023-01-15T15:36:47.037Z,33.15
2023-01-15T15:42:09.584Z,33.38
2023-01-15T15:47:39.067Z,33.80
2023-01-15T15:52:45.474Z,32.63
2023-01-15T15:57:51.547Z,33.45
2023-01-15T16:02:58.657Z,32.75
2023-01-15T16:08:20.829Z,32.40
2023-01-15T16:13:27.156Z,33.00
2023-01-15T16:18:35.768Z,32.20
2023-01-15T16:23:39.154Z,32.33
2023-01-15T16:28:45.175Z,33.28
2023-01-15T16:33:56.059Z,32.38
2023-01-15T16:39:09.515Z,32.85
2023-01-15T16:44:36.082Z,32.65
2023-01-15T16:49:40.359Z,32.45
2023-01-15T16:54:47.760Z,32.45
2023-01-15T17:00:00.426Z,32.35
2023-01-15T17:05:16.767Z,32.80
2023-01-15T17:10:22.923Z,32.85
2023-01-15T17:15:42.561Z,32.33
2023-01-15T17:20:57.770Z,32.22
2023-01-15T17:26:00.829Z,31.85
2023-01-15T17:31:04.262Z,32.40
2023-01-15T17:36:10.257Z,32.13
2023-01-15T17:41:14.248Z,32.65
2023-01-15T17:46:36.957Z,32.67
2023-01-15T17:51:41.455Z,33.58
2023-01-15T17:57:02.046Z,33.20
2023-01-15T18:02:43.859Z,33.53
2023-01-15T18:07:48.241Z,33.28
2023-01-15T18:12:51.580Z,32.85
2023-01-15T18:17:54.446Z,32.72
2023-01-15T18:22:58.843Z,32.40
2023-01-15T18:28:01.787Z,32.47
2023-01-15T18:33:04.898Z,32.80
2023-01-15T18:38:09.158Z,33.60
2023-01-15T18:43:30.438Z,32.92
2023-01-15T18:48:33.867Z,32.70
2023-01-15T18:53:42.041Z,32.75
2023-01-15T18:58:44.888Z,33.30
2023-01-15T19:03:52.672Z,33.17
2023-01-15T19:08:56.920Z,32.25
2023-01-15T19:14:17.323Z,32.35
2023-01-15T19:19:20.321Z,32.83
2023-01-15T19:24:24.796Z,32.55
2023-01-15T19:29:27.824Z,32.03
2023-01-15T19:34:34.141Z,32.63
2023-01-15T19:39:38.588Z,32.67
2023-01-15T19:44:59.403Z,32.30
2023-01-15T19:50:20.950Z,32.97
2023-01-15T19:55:26.039Z,32.50
2023-01-15T20:00:30.097Z,32.15
2023-01-15T20:05:33.644Z,31.98
2023-01-15T20:10:38.496Z,32.55
2023-01-15T20:15:43.823Z,32.67
2023-01-15T20:20:46.677Z,32.92
2023-01-15T20:25:52.880Z,32.10
2023-01-15T20:30:56.162Z,32.78
2023-01-15T20:36:03.025Z,32.47
2023-01-15T20:41:34.573Z,32.50
2023-01-15T20:46:37.557Z,32.60
2023-01-15T20:51:40.530Z,33.88
2023-01-15T20:56:44.811Z,32.28
2023-01-15T21:01:47.931Z,33.00
2023-01-15T21:06:51.003Z,32.20
2023-01-15T21:11:55.304Z,33.08
2023-01-15T21:16:58.279Z,33.65
2023-01-15T21:22:01.329Z,32.75
2023-01-15T21:27:05.751Z,31.83
2023-01-15T21:32:08.623Z,32.30
2023-01-15T21:37:11.472Z,32.33
2023-01-15T21:42:35.802Z,32.92
2023-01-15T21:47:38.815Z,32.85
2023-01-15T21:52:41.657Z,32.70
2023-01-15T21:57:47.451Z,33.15
2023-01-15T22:02:50.359Z,32.20
2023-01-15T22:07:54.013Z,33.38
2023-01-15T22:12:58.300Z,32.25
2023-01-15T22:18:01.238Z,31.98
2023-01-15T22:23:04.144Z,31.73
2023-01-15T22:28:08.447Z,31.90
2023-01-15T22:33:11.290Z,32.05
2023-01-15T22:38:14.170Z,31.95
2023-01-15T22:43:18.465Z,32.13
2023-01-15T22:48:21.332Z,31.80
2023-01-15T22:53:24.215Z,31.92
2023-01-15T22:58:28.591Z,32.03
2023-01-15T23:03:35.475Z,32.60
2023-01-15T23:08:39.474Z,32.22
2023-01-15T23:13:58.290Z,32.55
2023-01-15T23:19:01.407Z,31.83
2023-01-15T23:24:04.681Z,31.80
2023-01-15T23:29:09.019Z,31.85
2023-01-15T23:34:12.521Z,31.77
2023-01-15T23:39:15.383Z,31.80
2023-01-15T23:44:38.843Z,31.92
2023-01-15T23:49:41.728Z,32.13
2023-01-15T23:54:44.551Z,31.75
2023-01-15T23:59:48.744Z,31.65
